Time;durP1;ratioP1;P1;durP2;ratioP2;P2;SDS_P1;SDS_P2;PMS_P1;PMS_P2;Temp;Humidity;BMP_temperature;BMP_pressure;BME280_temperature;BME280_humidity;BME280_pressure;Samples;Min_cycle;Max_cycle;Signal;HPM_P1;HPM_P2
2023/06/05 00:01:12;;;;;;;1.98;1.10;;;16.70;61.90;;;;;;5025923;28;20430;-62
2023/06/05 00:03:39;;;;;;;2.05;0.80;;;16.70;62.20;;;;;;5027957;28;20030;-62
2023/06/05 00:06:06;;;;;;;1.35;0.80;;;16.60;62.00;;;;;;5026793;28;20332;-62
2023/06/05 00:08:32;;;;;;;1.15;0.82;;;16.60;62.20;;;;;;5023586;28;20514;-62
2023/06/05 00:10:57;;;;;;;1.60;0.80;;;16.60;62.20;;;;;;5018069;28;20022;-62
2023/06/05 00:13:23;;;;;;;1.13;0.90;;;16.50;62.40;;;;;;5027673;28;20392;-61
2023/06/05 00:15:50;;;;;;;0.80;0.73;;;16.40;62.60;;;;;;5023790;28;20033;-62
2023/06/05 00:18:18;;;;;;;2.00;1.38;;;16.40;62.80;;;;;;5023210;28;20048;-62
2023/06/05 00:20:44;;;;;;;1.08;0.75;;;16.40;62.70;;;;;;5028696;28;20021;-62
2023/06/05 00:23:12;;;;;;;0.90;0.90;;;16.40;62.80;;;;;;5028520;28;20040;-62
2023/06/05 00:25:39;;;;;;;0.93;0.90;;;16.40;62.80;;;;;;5014778;28;20026;-62
2023/06/05 00:28:04;;;;;;;2.05;0.77;;;16.40;63.00;;;;;;5038966;28;20470;-62
2023/06/05 00:30:30;;;;;;;6.95;0.98;;;16.30;63.00;;;;;;5034498;28;20557;-62
2023/06/05 00:32:56;;;;;;;1.42;0.95;;;16.30;63.10;;;;;;5034714;28;20049;-62
2023/06/05 00:35:22;;;;;;;1.63;0.75;;;16.20;63.20;;;;;;5032384;28;20095;-62
2023/06/05 00:37:48;;;;;;;1.05;0.65;;;16.20;63.30;;;;;;5041489;28;20120;-62
2023/06/05 00:40:14;;;;;;;1.27;0.80;;;16.20;63.40;;;;;;5038714;28;20033;-62
2023/06/05 00:42:39;;;;;;;0.68;0.68;;;16.10;63.40;;;;;;5036664;28;20025;-62
2023/06/05 00:45:05;;;;;;;1.30;1.00;;;16.10;63.60;;;;;;5036946;28;20033;-62
2023/06/05 00:47:33;;;;;;;0.98;0.88;;;16.10;63.70;;;;;;5034771;28;20111;-62
2023/06/05 00:49:59;;;;;;;1.23;0.77;;;16.00;63.80;;;;;;5026660;28;20461;-62
2023/06/05 00:52:26;;;;;;;1.77;1.02;;;16.00;64.00;;;;;;5034352;28;20036;-61
2023/06/05 00:54:52;;;;;;;2.35;1.20;;;16.00;64.10;;;;;;5034234;28;20172;-62
2023/06/05 00:57:19;;;;;;;1.63;0.80;;;15.90;64.10;;;;;;5029949;28;20025;-62
2023/06/05 00:59:45;;;;;;;0.88;0.80;;;15.90;64.10;;;;;;5033071;28;20025;-61
2023/06/05 01:02:14;;;;;;;0.93;0.68;;;15.80;64.20;;;;;;5030516;28;20071;-62
2023/06/05 01:04:43;;;;;;;2.22;1.20;;;15.80;64.40;;;;;;5033832;28;20132;-61
2023/06/05 01:07:10;;;;;;;1.35;0.60;;;15.80;65.10;;;;;;5023872;28;20029;-61
2023/06/05 01:09:37;;;;;;;5.32;1.17;;;15.70;64.70;;;;;;5031761;28;20025;-62
2023/06/05 01:12:15;;;;;;;1.67;1.05;;;15.70;64.70;;;;;;5034030;28;20229;-62
2023/06/05 01:14:47;;;;;;;1.27;0.90;;;15.70;64.90;;;;;;5034064;28;20096;-61
2023/06/05 01:17:14;;;;;;;1.17;0.70;;;15.70;65.00;;;;;;5033248;28;20444;-61
2023/06/05 01:19:40;;;;;;;1.75;1.00;;;15.70;65.50;;;;;;5033686;28;20045;-62
2023/06/05 01:22:06;;;;;;;1.98;1.15;;;15.60;64.80;;;;;;5035191;28;20036;-61
2023/06/05 01:24:32;;;;;;;1.23;1.13;;;15.60;64.80;;;;;;5033453;28;20416;-62
2023/06/05 01:27:18;;;;;;;3.03;1.63;;;15.60;65.00;;;;;;5031517;28;20513;-61
2023/06/05 01:29:53;;;;;;;1.00;0.88;;;15.60;65.10;;;;;;5034489;28;20098;-62
2023/06/05 01:32:53;;;;;;;1.45;0.93;;;15.50;65.50;;;;;;5030047;28;20026;-62
2023/06/05 01:35:21;;;;;;;0.70;0.68;;;15.50;65.60;;;;;;5028343;28;20053;-62
2023/06/05 01:37:49;;;;;;;1.65;1.02;;;15.30;65.80;;;;;;5027853;28;20040;-62
2023/06/05 01:40:23;;;;;;;1.98;0.90;;;15.30;66.00;;;;;;5034542;28;20477;-61
2023/06/05 01:42:51;;;;;;;1.48;1.02;;;15.30;66.00;;;;;;5026456;28;20392;-61
2023/06/05 01:45:17;;;;;;;2.65;1.05;;;15.20;66.10;;;;;;5024764;28;20034;-62
2023/06/05 01:47:45;;;;;;;3.08;1.50;;;15.20;66.30;;;;;;5029542;28;20037;-61
2023/06/05 01:50:14;;;;;;;2.35;0.95;;;15.20;66.40;;;;;;5026117;28;20109;-62
2023/06/05 01:52:41;;;;;;;2.35;1.38;;;15.20;66.40;;;;;;5026083;28;20436;-61
2023/06/05 01:55:16;;;;;;;0.77;0.77;;;15.20;66.40;;;;;;5021446;28;20118;-61
2023/06/05 01:57:42;;;;;;;2.22;1.10;;;15.20;66.40;;;;;;5028632;28;20025;-61
2023/06/05 02:00:13;;;;;;;2.30;1.00;;;15.20;66.40;;;;;;5029478;28;20173;-61
2023/06/05 02:02:49;;;;;;;1.75;1.10;;;15.10;67.00;;;;;;5025600;28;20117;-61
2023/06/05 02:05:20;;;;;;;1.83;1.10;;;15.10;66.50;;;;;;5028740;28;20028;-62
2023/06/05 02:07:49;;;;;;;1.63;1.00;;;15.10;66.70;;;;;;5036378;28;20116;-62
2023/06/05 02:10:15;;;;;;;3.78;1.35;;;15.00;66.90;;;;;;5028280;28;20481;-62
2023/06/05 02:12:44;;;;;;;1.95;1.13;;;15.00;67.00;;;;;;5019358;28;20064;-61
2023/06/05 02:15:12;;;;;;;1.98;1.33;;;15.00;67.00;;;;;;5028575;28;20053;-62
2023/06/05 02:17:44;;;;;;;1.40;1.17;;;15.00;67.00;;;;;;5023113;28;20025;-62
2023/06/05 02:20:11;;;;;;;2.73;1.17;;;15.00;67.10;;;;;;5022631;28;20037;-62
2023/06/05 02:22:37;;;;;;;2.28;1.10;;;14.90;67.20;;;;;;5030226;28;20268;-62
2023/06/05 02:25:05;;;;;;;1.55;0.90;;;14.90;67.80;;;;;;5026697;28;20183;-62
2023/06/05 02:27:30;;;;;;;1.38;1.05;;;14.90;67.30;;;;;;5029909;28;20030;-62
2023/06/05 02:29:56;;;;;;;1.98;1.38;;;14.90;67.40;;;;;;5024655;28;20044;-62
2023/06/05 02:32:25;;;;;;;1.55;1.17;;;14.90;67.40;;;;;;5020650;28;20030;-61
2023/06/05 02:34:56;;;;;;;2.65;1.00;;;14.80;67.40;;;;;;5021571;28;20076;-61
2023/06/05 02:37:23;;;;;;;3.08;1.20;;;14.80;67.50;;;;;;5014949;28;20073;-62
2023/06/05 02:39:48;;;;;;;2.22;1.15;;;14.80;67.60;;;;;;5028387;28;20030;-62
2023/06/05 02:42:14;;;;;;;1.35;1.20;;;14.80;67.60;;;;;;5020831;28;20032;-62
2023/06/05 02:44:39;;;;;;;3.00;1.70;;;14.70;67.70;;;;;;5028666;28;20061;-61
2023/06/05 02:47:05;;;;;;;1.30;1.10;;;14.70;67.70;;;;;;5030152;28;20108;-61
2023/06/05 02:49:32;;;;;;;4.32;2.25;;;14.70;67.90;;;;;;5021228;28;20033;-61
2023/06/05 02:51:58;;;;;;;1.88;1.23;;;14.70;68.00;;;;;;5025255;28;20030;-61
2023/06/05 02:54:27;;;;;;;1.52;1.10;;;14.60;68.20;;;;;;5035014;28;20081;-61
2023/06/05 02:56:53;;;;;;;2.45;1.63;;;14.60;68.30;;;;;;5031230;28;20085;-61
2023/06/05 02:59:19;;;;;;;1.42;1.00;;;14.50;68.40;;;;;;5027339;28;20026;-62
2023/06/05 03:01:47;;;;;;;1.95;1.25;;;14.50;68.40;;;;;;5028117;28;20034;-62
2023/06/05 03:04:13;;;;;;;4.95;2.03;;;14.50;68.50;;;;;;5023197;28;20018;-62
2023/06/05 03:06:43;;;;;;;1.88;1.58;;;14.40;68.70;;;;;;5027756;28;20082;-61
2023/06/05 03:09:09;;;;;;;1.52;1.23;;;14.40;68.80;;;;;;5033822;28;20499;-61
2023/06/05 03:11:34;;;;;;;3.00;1.25;;;14.40;68.90;;;;;;5028852;28;20377;-62
2023/06/05 03:14:00;;;;;;;2.25;1.50;;;14.30;68.90;;;;;;5030553;28;20025;-61
2023/06/05 03:16:33;;;;;;;3.50;1.52;;;14.30;69.00;;;;;;5028029;28;20106;-61
2023/06/05 03:18:58;;;;;;;1.55;1.23;;;14.30;69.00;;;;;;5017676;28;20485;-61
2023/06/05 03:21:24;;;;;;;2.72;1.52;;;14.30;69.00;;;;;;5029589;28;20061;-61
2023/06/05 03:23:50;;;;;;;1.67;0.98;;;14.30;69.00;;;;;;5015883;28;20473;-61
2023/06/05 03:26:15;;;;;;;2.28;1.48;;;14.30;69.10;;;;;;5021320;28;20516;-61
2023/06/05 03:28:42;;;;;;;2.38;1.20;;;14.30;69.10;;;;;;5042140;28;20029;-61
2023/06/05 03:31:10;;;;;;;3.50;1.40;;;14.30;69.20;;;;;;5028634;28;20035;-61
2023/06/05 03:33:35;;;;;;;3.17;1.25;;;14.20;69.20;;;;;;5027541;28;20046;-61
2023/06/05 03:36:02;;;;;;;4.32;1.50;;;14.20;69.40;;;;;;5029749;28;20155;-61
2023/06/05 03:38:27;;;;;;;3.90;1.80;;;14.10;69.60;;;;;;5024861;28;20029;-61
2023/06/05 03:40:53;;;;;;;2.80;1.27;;;14.10;69.60;;;;;;5027407;28;20036;-61
2023/06/05 03:43:19;;;;;;;1.58;1.00;;;14.10;70.30;;;;;;5017725;28;20049;-61
2023/06/05 03:45:44;;;;;;;4.88;1.88;;;14.00;69.80;;;;;;5023422;28;20029;-61
2023/06/05 03:48:11;;;;;;;4.57;1.50;;;14.00;69.80;;;;;;5027169;28;20387;-62
2023/06/05 03:50:41;;;;;;;2.53;1.45;;;14.00;69.90;;;;;;5034615;28;20174;-61
2023/06/05 03:53:08;;;;;;;3.33;1.10;;;14.10;69.90;;;;;;5024337;28;20037;-61
2023/06/05 03:55:47;;;;;;;2.75;1.55;;;14.00;70.00;;;;;;5034103;28;20088;-62
2023/06/05 03:58:14;;;;;;;2.90;1.58;;;14.00;70.10;;;;;;5029680;28;20026;-62
2023/06/05 04:00:45;;;;;;;2.33;1.30;;;14.00;70.20;;;;;;5028889;28;20102;-62
2023/06/05 04:03:12;;;;;;;2.33;1.50;;;14.00;70.10;;;;;;5022977;28;20033;-62
2023/06/05 04:05:39;;;;;;;2.75;1.70;;;14.10;70.20;;;;;;5029996;28;20032;-62
2023/06/05 04:08:09;;;;;;;3.38;1.88;;;14.10;70.20;;;;;;5026886;28;20463;-61
2023/06/05 04:10:35;;;;;;;3.35;2.00;;;14.10;70.10;;;;;;5023485;28;20025;-61
2023/06/05 04:13:01;;;;;;;5.40;1.60;;;14.10;70.20;;;;;;5014714;28;20052;-62
2023/06/05 04:15:27;;;;;;;2.83;2.10;;;14.10;70.10;;;;;;5028905;28;20022;-61
2023/06/05 04:17:53;;;;;;;3.65;1.60;;;14.10;70.20;;;;;;5021409;28;20034;-61
2023/06/05 04:20:20;;;;;;;3.20;1.98;;;14.10;70.20;;;;;;5020489;28;20445;-62
2023/06/05 04:22:45;;;;;;;2.70;1.40;;;14.10;70.20;;;;;;5012456;28;20473;-62
2023/06/05 04:25:12;;;;;;;3.45;2.13;;;14.00;70.30;;;;;;4998909;28;20068;-62
2023/06/05 04:27:42;;;;;;;2.65;1.60;;;14.10;70.50;;;;;;5024426;28;20722;-61
2023/06/05 04:30:10;;;;;;;2.38;1.58;;;14.00;70.50;;;;;;5030617;28;20029;-61
2023/06/05 04:32:37;;;;;;;1.58;1.20;;;14.00;70.60;;;;;;5022986;28;20026;-61
2023/06/05 04:35:08;;;;;;;3.13;1.45;;;14.10;70.60;;;;;;5029925;28;20502;-61
2023/06/05 04:37:37;;;;;;;2.33;1.70;;;14.10;70.40;;;;;;5024418;28;20084;-61
2023/06/05 04:40:05;;;;;;;1.15;0.80;;;14.10;70.30;;;;;;5028027;28;20496;-61
2023/06/05 04:42:34;;;;;;;2.40;1.33;;;14.10;70.20;;;;;;5022419;28;20084;-61
2023/06/05 04:45:04;;;;;;;2.53;1.73;;;14.20;70.30;;;;;;5025283;28;20034;-61
2023/06/05 04:47:31;;;;;;;3.85;1.48;;;14.20;70.20;;;;;;5025321;28;20081;-61
2023/06/05 04:50:03;;;;;;;1.75;1.35;;;14.20;70.20;;;;;;5023284;28;20028;-61
2023/06/05 04:52:32;;;;;;;2.00;1.08;;;14.20;70.20;;;;;;5027037;28;20100;-61
2023/06/05 04:55:02;;;;;;;5.20;1.30;;;14.30;70.30;;;;;;5028022;28;20468;-62
2023/06/05 04:57:29;;;;;;;3.38;1.58;;;14.30;70.00;;;;;;5026351;28;20033;-61
2023/06/05 04:59:56;;;;;;;2.85;1.27;;;14.30;70.00;;;;;;5031117;28;20382;-61
2023/06/05 05:02:23;;;;;;;2.65;1.40;;;14.40;70.00;;;;;;5031466;28;20044;-62
2023/06/05 05:04:49;;;;;;;2.47;1.50;;;14.40;70.10;;;;;;5024612;28;20036;-62
2023/06/05 05:07:17;;;;;;;2.97;1.88;;;14.40;70.00;;;;;;5027547;28;20021;-61
2023/06/05 05:09:43;;;;;;;2.97;1.02;;;14.40;70.10;;;;;;5020990;28;20076;-62
2023/06/05 05:12:10;;;;;;;1.83;1.10;;;14.40;70.00;;;;;;5039660;28;20032;-62
2023/06/05 05:14:36;;;;;;;4.40;1.20;;;14.40;70.10;;;;;;5033925;28;20083;-62
2023/06/05 05:17:03;;;;;;;2.25;1.45;;;14.40;70.00;;;;;;5036837;28;20043;-62
2023/06/05 05:19:29;;;;;;;4.38;1.55;;;14.50;70.00;;;;;;5036315;28;20520;-62
2023/06/05 05:21:55;;;;;;;2.30;1.98;;;14.50;70.20;;;;;;5037404;28;20025;-62
2023/06/05 05:24:21;;;;;;;2.92;1.40;;;14.50;70.00;;;;;;5026162;28;20481;-63
2023/06/05 05:26:46;;;;;;;3.97;2.10;;;14.50;69.90;;;;;;5044752;28;20055;-63
2023/06/05 05:29:12;;;;;;;3.28;1.80;;;14.50;69.90;;;;;;5040709;28;20552;-62
2023/06/05 05:31:38;;;;;;;2.70;1.23;;;14.60;69.90;;;;;;5038489;28;20091;-61
2023/06/05 05:34:04;;;;;;;1.90;1.35;;;14.60;69.90;;;;;;5038021;28;20101;-61
2023/06/05 05:36:29;;;;;;;2.95;1.88;;;14.60;69.80;;;;;;5028414;28;20037;-61
2023/06/05 05:38:55;;;;;;;1.98;1.60;;;14.60;69.80;;;;;;5032833;28;20084;-61
2023/06/05 05:41:21;;;;;;;4.85;1.27;;;14.70;69.80;;;;;;5040676;28;20062;-62
2023/06/05 05:43:47;;;;;;;2.85;1.83;;;14.80;69.70;;;;;;5038536;28;20121;-61
2023/06/05 05:46:13;;;;;;;3.38;1.92;;;14.80;69.60;;;;;;5038130;28;20526;-61
2023/06/05 05:48:39;;;;;;;3.05;1.77;;;14.90;69.80;;;;;;5033029;28;20024;-61
2023/06/05 05:51:09;;;;;;;3.55;1.63;;;14.90;69.80;;;;;;5022258;28;20488;-62
2023/06/05 05:53:36;;;;;;;5.75;1.92;;;15.00;69.60;;;;;;5022295;28;20038;-61
2023/06/05 05:56:03;;;;;;;1.98;1.42;;;15.00;69.50;;;;;;5023818;28;20028;-61
2023/06/05 05:58:29;;;;;;;4.18;1.35;;;15.10;69.50;;;;;;5029134;28;20052;-62
2023/06/05 06:00:55;;;;;;;2.97;1.65;;;15.20;69.50;;;;;;5028643;28;20520;-62
2023/06/05 06:03:23;;;;;;;1.83;1.40;;;15.20;69.50;;;;;;5024868;28;20026;-63
2023/06/05 06:05:49;;;;;;;1.58;1.20;;;15.30;69.30;;;;;;5024513;28;20036;-62
2023/06/05 06:08:15;;;;;;;2.97;1.33;;;15.30;69.20;;;;;;5021324;28;20509;-62
2023/06/05 06:10:41;;;;;;;6.05;1.10;;;15.40;69.10;;;;;;5024126;28;20323;-63
2023/06/05 06:13:07;;;;;;;1.88;1.60;;;15.40;68.90;;;;;;5029566;28;20717;-63
2023/06/05 06:15:32;;;;;;;1.95;1.30;;;15.40;68.90;;;;;;5026262;28;20025;-62
2023/06/05 06:18:02;;;;;;;2.22;1.00;;;15.50;68.80;;;;;;5021153;28;20036;-65
2023/06/05 06:20:28;;;;;;;3.08;1.60;;;15.50;68.80;;;;;;5028631;28;20033;-66
2023/06/05 06:22:54;;;;;;;4.65;1.90;;;15.60;68.70;;;;;;5026218;28;20116;-65
2023/06/05 06:25:20;;;;;;;2.42;1.20;;;15.60;68.60;;;;;;5026044;28;20033;-64
2023/06/05 06:27:48;;;;;;;2.08;1.23;;;15.70;68.50;;;;;;5033178;28;20034;-63
2023/06/05 06:30:14;;;;;;;2.35;1.52;;;15.80;68.40;;;;;;5024172;28;20021;-65
2023/06/05 06:32:40;;;;;;;2.78;1.60;;;15.90;68.90;;;;;;5022585;28;20131;-64
2023/06/05 06:35:07;;;;;;;2.15;1.00;;;15.90;68.00;;;;;;5027951;28;20110;-64
2023/06/05 06:37:32;;;;;;;2.92;1.42;;;15.90;67.80;;;;;;5036609;28;20048;-64
2023/06/05 06:39:58;;;;;;;1.73;1.15;;;16.00;67.60;;;;;;5036537;28;20033;-63
2023/06/05 06:42:24;;;;;;;1.83;1.30;;;16.10;67.60;;;;;;5039727;28;20036;-62
2023/06/05 06:44:55;;;;;;;1.63;1.30;;;16.10;67.50;;;;;;5029225;28;20034;-63
2023/06/05 06:47:25;;;;;;;3.88;1.80;;;16.10;67.40;;;;;;5029170;28;20056;-62
2023/06/05 06:49:51;;;;;;;3.20;1.90;;;16.20;67.20;;;;;;5021440;28;20061;-62
2023/06/05 06:52:18;;;;;;;2.00;1.50;;;16.30;67.10;;;;;;5028265;28;20032;-61
2023/06/05 06:54:44;;;;;;;1.92;1.23;;;16.30;66.90;;;;;;5030131;28;20352;-61
2023/06/05 06:57:10;;;;;;;2.85;1.60;;;16.40;66.80;;;;;;5028786;28;20041;-61
2023/06/05 06:59:36;;;;;;;2.55;0.93;;;16.50;66.50;;;;;;5035366;28;20075;-66
2023/06/05 07:02:11;;;;;;;2.30;1.45;;;16.60;66.30;;;;;;5042637;28;20025;-62
2023/06/05 07:04:38;;;;;;;1.65;1.05;;;16.70;65.90;;;;;;5027010;28;20350;-60
2023/06/05 07:07:04;;;;;;;3.13;1.02;;;16.80;65.80;;;;;;5024170;28;20037;-62
2023/06/05 07:09:30;;;;;;;3.30;1.70;;;16.90;65.60;;;;;;5030508;28;20075;-62
2023/06/05 07:11:55;;;;;;;1.88;0.95;;;16.90;65.50;;;;;;5031037;28;20020;-62
2023/06/05 07:14:22;;;;;;;1.70;1.35;;;17.00;65.40;;;;;;5017618;28;20776;-63
2023/06/05 07:16:48;;;;;;;2.17;1.23;;;17.10;65.10;;;;;;5016574;28;20037;-63
2023/06/05 07:19:15;;;;;;;3.22;1.70;;;17.20;65.10;;;;;;5026339;28;20129;-63
2023/06/05 07:21:41;;;;;;;5.05;2.22;;;17.20;65.50;;;;;;5036488;28;20425;-63
2023/06/05 07:24:07;;;;;;;1.63;1.08;;;17.20;64.90;;;;;;5031308;28;20071;-63
2023/06/05 07:26:33;;;;;;;1.63;1.23;;;17.30;64.70;;;;;;5032165;28;20075;-63
2023/06/05 07:28:59;;;;;;;2.45;1.52;;;17.30;64.60;;;;;;5036764;28;20025;-63
2023/06/05 07:31:25;;;;;;;2.05;1.52;;;17.30;64.60;;;;;;5027278;28;20059;-63
2023/06/05 07:33:52;;;;;;;1.27;1.00;;;17.40;65.10;;;;;;5033726;28;20049;-63
2023/06/05 07:36:17;;;;;;;1.83;1.00;;;17.50;64.30;;;;;;5030921;28;20115;-64
2023/06/05 07:38:43;;;;;;;1.70;1.00;;;17.60;64.20;;;;;;5032300;28;20469;-63
2023/06/05 07:41:11;;;;;;;1.70;1.05;;;17.80;64.00;;;;;;5032236;28;20025;-63
2023/06/05 07:43:40;;;;;;;2.83;1.50;;;17.90;63.70;;;;;;5032410;28;20014;-63
2023/06/05 07:46:06;;;;;;;1.38;1.27;;;18.00;63.60;;;;;;5036291;28;20053;-63
2023/06/05 07:48:31;;;;;;;2.67;1.17;;;18.10;63.50;;;;;;5026455;28;20056;-63
2023/06/05 07:50:57;;;;;;;5.00;1.48;;;18.20;63.30;;;;;;5027421;28;20030;-63
2023/06/05 07:53:23;;;;;;;2.55;1.40;;;18.30;63.10;;;;;;5025881;28;20381;-62
2023/06/05 07:55:50;;;;;;;3.53;1.40;;;18.30;62.90;;;;;;5030691;28;20052;-62
2023/06/05 07:58:16;;;;;;;3.78;1.67;;;18.30;63.50;;;;;;5026738;28;20072;-62
2023/06/05 08:00:43;;;;;;;2.95;0.98;;;18.40;62.80;;;;;;5034624;28;20025;-62
2023/06/05 08:03:10;;;;;;;2.13;1.30;;;18.40;62.60;;;;;;5025764;28;20532;-62
2023/06/05 08:05:35;;;;;;;1.50;0.90;;;18.50;62.50;;;;;;5026688;28;20018;-62
2023/06/05 08:08:02;;;;;;;1.75;1.10;;;18.50;62.60;;;;;;5018075;28;20117;-62
2023/06/05 08:10:28;;;;;;;3.90;1.45;;;18.60;62.50;;;;;;5034010;28;20048;-62
2023/06/05 08:12:53;;;;;;;2.53;1.67;;;18.70;62.30;;;;;;5023676;28;20026;-62
2023/06/05 08:15:19;;;;;;;3.25;1.60;;;18.80;62.20;;;;;;5027417;28;20033;-62
2023/06/05 08:17:45;;;;;;;2.20;1.60;;;18.80;62.10;;;;;;5032395;28;20033;-63
2023/06/05 08:20:11;;;;;;;2.67;1.45;;;19.00;62.00;;;;;;5030591;28;20024;-63
2023/06/05 08:22:40;;;;;;;2.17;1.15;;;19.00;61.70;;;;;;5030189;28;20389;-63
2023/06/05 08:25:06;;;;;;;0.88;0.82;;;19.20;61.60;;;;;;5027762;28;20110;-62
2023/06/05 08:27:32;;;;;;;1.25;1.05;;;19.30;61.40;;;;;;5026288;28;20033;-62
2023/06/05 08:29:59;;;;;;;1.27;1.10;;;19.40;61.20;;;;;;5024407;28;20025;-62
2023/06/05 08:32:25;;;;;;;1.27;0.90;;;19.50;61.00;;;;;;5020768;28;20045;-62
2023/06/05 08:34:51;;;;;;;1.52;1.27;;;19.60;60.80;;;;;;5032342;28;20041;-61
2023/06/05 08:37:17;;;;;;;1.90;1.60;;;19.60;60.70;;;;;;5028464;28;20400;-62
2023/06/05 08:39:42;;;;;;;1.55;1.05;;;19.70;60.60;;;;;;5030578;28;20056;-62
2023/06/05 08:42:10;;;;;;;3.53;1.65;;;19.70;61.00;;;;;;5031418;28;20218;-62
2023/06/05 08:44:36;;;;;;;2.25;1.25;;;19.80;60.40;;;;;;5027160;28;20513;-62
2023/06/05 08:47:03;;;;;;;1.33;1.00;;;19.90;60.30;;;;;;5032595;28;20183;-62
2023/06/05 08:49:30;;;;;;;1.77;1.08;;;20.00;60.10;;;;;;5028980;28;20405;-63
2023/06/05 08:52:05;;;;;;;2.42;1.08;;;20.00;60.10;;;;;;5025329;28;20049;-62
2023/06/05 08:54:41;;;;;;;2.92;1.45;;;20.10;59.90;;;;;;5027089;28;20037;-62
2023/06/05 08:57:07;;;;;;;2.70;1.35;;;20.30;59.80;;;;;;5027332;28;20065;-62
2023/06/05 08:59:33;;;;;;;1.58;1.30;;;20.30;59.50;;;;;;5012036;28;20068;-62
2023/06/05 09:02:00;;;;;;;3.08;1.30;;;20.40;59.40;;;;;;5022805;28;20034;-62
2023/06/05 09:04:29;;;;;;;1.35;1.05;;;20.50;59.30;;;;;;5025379;28;20033;-62
2023/06/05 09:06:56;;;;;;;0.90;0.85;;;20.60;59.20;;;;;;5032446;28;20064;-62
2023/06/05 09:09:22;;;;;;;1.13;1.00;;;20.70;58.90;;;;;;5030408;28;20480;-62
2023/06/05 09:12:09;;;;;;;1.52;1.10;;;20.70;58.80;;;;;;5029657;28;20370;-62
2023/06/05 09:14:35;;;;;;;1.77;1.30;;;20.90;58.70;;;;;;5030640;28;20032;-62
2023/06/05 09:17:03;;;;;;;2.50;1.40;;;21.00;58.50;;;;;;5035195;28;20026;-62
2023/06/05 09:19:39;;;;;;;1.80;1.30;;;21.10;57.50;;;;;;5033384;28;20022;-63
2023/06/05 09:22:10;;;;;;;1.67;0.80;;;21.10;57.80;;;;;;5038223;28;20032;-62
2023/06/05 09:24:40;;;;;;;1.05;0.95;;;21.20;57.80;;;;;;5031372;28;20028;-62
2023/06/05 09:27:10;;;;;;;1.55;0.90;;;21.30;57.80;;;;;;5035736;28;20037;-62
2023/06/05 09:29:41;;;;;;;1.35;1.10;;;21.50;57.60;;;;;;5041350;28;20071;-63
2023/06/05 09:32:23;;;;;;;2.67;1.05;;;21.60;57.20;;;;;;5040714;28;20025;-63
2023/06/05 09:35:01;;;;;;;1.60;0.88;;;21.70;57.10;;;;;;5031007;28;20052;-62
2023/06/05 09:37:36;;;;;;;1.15;0.98;;;21.80;57.10;;;;;;5033451;28;20025;-63
2023/06/05 09:40:04;;;;;;;2.58;1.17;;;21.80;56.80;;;;;;5035981;28;20482;-62
2023/06/05 09:42:34;;;;;;;4.55;1.13;;;21.90;56.80;;;;;;5039952;28;20048;-62
2023/06/05 09:45:01;;;;;;;1.92;1.10;;;22.10;56.70;;;;;;5039262;28;20021;-62
2023/06/05 09:47:27;;;;;;;1.23;1.00;;;22.10;56.30;;;;;;5033947;28;20091;-62
2023/06/05 09:49:53;;;;;;;1.67;0.93;;;22.20;56.30;;;;;;5037532;28;20041;-62
2023/06/05 09:52:19;;;;;;;3.05;0.95;;;22.40;56.00;;;;;;5035911;28;20551;-62
2023/06/05 09:54:46;;;;;;;1.05;1.02;;;22.50;55.70;;;;;;5033498;28;20037;-62
2023/06/05 09:57:15;;;;;;;0.75;0.68;;;22.60;55.30;;;;;;5020064;28;20140;-62
2023/06/05 09:59:51;;;;;;;0.88;0.77;;;22.70;55.20;;;;;;5028664;28;20026;-62
2023/06/05 10:02:18;;;;;;;1.83;1.15;;;22.90;55.20;;;;;;5027280;28;20049;-62
2023/06/05 10:05:07;;;;;;;1.02;0.95;;;23.00;54.70;;;;;;5028690;28;20121;-65
2023/06/05 10:07:35;;;;;;;3.13;1.00;;;23.10;54.30;;;;;;5026012;28;20481;-62
2023/06/05 10:10:01;;;;;;;7.43;1.20;;;23.20;54.20;;;;;;5029939;28;20099;-65
2023/06/05 10:12:30;;;;;;;1.13;0.93;;;23.30;54.10;;;;;;5028545;28;20435;-65
2023/06/05 10:14:57;;;;;;;1.92;0.82;;;23.40;54.00;;;;;;5027585;28;20061;-65
2023/06/05 10:17:24;;;;;;;1.95;1.20;;;23.60;53.80;;;;;;5027861;28;20075;-65
2023/06/05 10:19:51;;;;;;;3.53;1.42;;;23.80;53.60;;;;;;5017019;28;20353;-62
2023/06/05 10:22:20;;;;;;;1.20;0.93;;;23.90;53.40;;;;;;5029346;28;20075;-62
2023/06/05 10:24:57;;;;;;;4.07;1.23;;;24.00;53.20;;;;;;5023821;28;20389;-65
2023/06/05 10:27:56;;;;;;;0.93;0.60;;;24.20;52.90;;;;;;5030605;28;20451;-65
2023/06/05 10:30:30;;;;;;;1.05;0.80;;;24.20;52.70;;;;;;5026642;28;20457;-65
2023/06/05 10:33:47;;;;;;;1.67;0.73;;;24.30;52.60;;;;;;5029694;28;20041;-65
2023/06/05 10:36:40;;;;;;;1.02;0.77;;;24.40;52.30;;;;;;5008065;28;20087;-65
2023/06/05 10:39:12;;;;;;;;;;;24.50;52.00;;;;;;5027412;28;20037;-65
2023/06/05 10:41:38;;;;;;;1.60;0.93;;;24.60;52.00;;;;;;5026419;28;20630;-65
2023/06/05 10:44:04;;;;;;;2.00;1.00;;;24.80;51.90;;;;;;5030439;28;20437;-62
2023/06/05 10:46:35;;;;;;;1.05;0.77;;;24.90;51.40;;;;;;5032430;28;20060;-62
2023/06/05 10:49:19;;;;;;;1.02;0.82;;;25.00;50.60;;;;;;5025849;28;20033;-64
2023/06/05 10:51:49;;;;;;;1.45;1.08;;;25.10;50.80;;;;;;5030125;28;20017;-68
2023/06/05 10:54:38;;;;;;;1.13;0.93;;;25.10;50.40;;;;;;5026558;28;20842;-68
2023/06/05 10:57:06;;;;;;;1.23;0.80;;;25.20;50.40;;;;;;5022113;28;20694;-68
2023/06/05 10:59:37;;;;;;;1.27;0.73;;;25.30;50.40;;;;;;5026722;28;20035;-68
2023/06/05 11:02:08;;;;;;;1.73;1.05;;;25.40;50.30;;;;;;5023346;28;20029;-65
2023/06/05 11:04:46;;;;;;;1.83;1.02;;;25.40;49.10;;;;;;5017949;28;20044;-65
2023/06/05 11:07:23;;;;;;;2.15;1.02;;;25.30;49.60;;;;;;5023404;28;20029;-65
2023/06/05 11:10:04;;;;;;;1.35;0.88;;;25.30;49.60;;;;;;5028802;28;20028;-64
2023/06/05 11:12:39;;;;;;;1.00;0.80;;;25.40;49.60;;;;;;5026591;28;20030;-64
2023/06/05 11:15:24;;;;;;;1.17;0.75;;;25.60;49.40;;;;;;5030317;28;20041;-64
2023/06/05 11:17:50;;;;;;;0.60;0.60;;;25.80;49.10;;;;;;5024386;28;20493;-65
2023/06/05 11:20:26;;;;;;;0.90;0.70;;;26.00;48.70;;;;;;5029743;28;20028;-64
2023/06/05 11:22:57;;;;;;;1.15;0.73;;;26.10;48.40;;;;;;5029291;28;20053;-65
2023/06/05 11:25:30;;;;;;;1.38;0.65;;;26.20;48.20;;;;;;5033833;28;20021;-65
2023/06/05 11:28:11;;;;;;;0.95;0.60;;;26.20;48.20;;;;;;5025250;28;20070;-65
2023/06/05 11:30:43;;;;;;;0.68;0.65;;;26.30;47.90;;;;;;5024691;28;20053;-64
2023/06/05 11:33:20;;;;;;;1.63;1.33;;;26.50;47.70;;;;;;5027660;28;20041;-64
2023/06/05 11:35:48;;;;;;;2.83;1.38;;;26.60;47.60;;;;;;5031734;28;20087;-65
2023/06/05 11:38:16;;;;;;;0.70;0.70;;;26.70;47.00;;;;;;5026815;28;20029;-65
2023/06/05 11:40:43;;;;;;;1.83;1.08;;;26.70;46.70;;;;;;5031932;28;20496;-65
2023/06/05 11:43:13;;;;;;;2.08;0.80;;;26.70;46.20;;;;;;5031381;28;20018;-65
2023/06/05 11:45:41;;;;;;;1.88;0.90;;;26.80;46.10;;;;;;5027738;28;20372;-65
2023/06/05 11:48:11;;;;;;;0.77;0.52;;;26.90;46.20;;;;;;5020220;28;20021;-64
2023/06/05 11:50:39;;;;;;;2.00;0.90;;;27.00;46.30;;;;;;5034118;28;20059;-65
2023/06/05 11:53:09;;;;;;;0.85;0.82;;;27.10;45.80;;;;;;5040061;28;20369;-64
2023/06/05 11:55:54;;;;;;;0.75;0.63;;;27.20;46.40;;;;;;5024953;28;20036;-65
2023/06/05 11:58:25;;;;;;;1.20;0.80;;;27.20;45.60;;;;;;5028695;28;20037;-65
2023/06/05 12:00:52;;;;;;;1.73;1.10;;;27.30;45.10;;;;;;5033340;28;20076;-68
2023/06/05 12:03:21;;;;;;;1.27;1.02;;;27.30;45.20;;;;;;5028748;28;20440;-68
2023/06/05 12:05:50;;;;;;;1.02;0.70;;;27.30;45.40;;;;;;5028689;28;20017;-68
2023/06/05 12:08:25;;;;;;;2.17;1.13;;;27.40;45.30;;;;;;5024896;28;20436;-65
2023/06/05 12:10:51;;;;;;;1.65;1.08;;;27.60;45.30;;;;;;5029313;28;20033;-65
2023/06/05 12:13:17;;;;;;;0.95;0.77;;;27.80;45.10;;;;;;5018729;28;20029;-64
2023/06/05 12:15:42;;;;;;;1.02;0.50;;;27.90;45.00;;;;;;5025612;28;20549;-65
2023/06/05 12:18:08;;;;;;;2.72;1.15;;;28.00;44.70;;;;;;5026174;28;20021;-65
2023/06/05 12:20:40;;;;;;;1.55;0.90;;;28.00;44.00;;;;;;5026001;28;20025;-65
2023/06/05 12:23:06;;;;;;;;;;;27.90;43.80;;;;;;5023010;28;20029;-65
2023/06/05 12:25:32;;;;;;;0.80;0.63;;;27.90;44.10;;;;;;5028835;28;19917;-65
2023/06/05 12:27:59;;;;;;;0.75;0.70;;;27.90;44.40;;;;;;5029671;28;20140;-64
2023/06/05 12:30:24;;;;;;;3.15;0.95;;;28.00;44.30;;;;;;5027772;28;20036;-64
2023/06/05 12:32:51;;;;;;;0.82;0.82;;;28.10;43.70;;;;;;5029519;28;20037;-65
2023/06/05 12:35:19;;;;;;;0.82;0.70;;;28.20;43.30;;;;;;5027720;28;20103;-65
2023/06/05 12:37:47;;;;;;;1.20;0.90;;;28.30;43.30;;;;;;5030043;28;20091;-64
2023/06/05 12:40:14;;;;;;;0.90;0.63;;;28.50;42.70;;;;;;5028186;28;20476;-67
2023/06/05 12:42:43;;;;;;;2.97;1.00;;;28.40;42.40;;;;;;5029001;28;20030;-68
2023/06/05 12:45:09;;;;;;;1.27;1.02;;;28.30;42.50;;;;;;5028315;28;20029;-68
2023/06/05 12:47:36;;;;;;;0.98;0.77;;;28.50;42.70;;;;;;5028092;28;20404;-67
2023/06/05 12:50:03;;;;;;;0.70;0.70;;;28.60;42.20;;;;;;5020806;28;20508;-68
2023/06/05 12:52:30;;;;;;;0.60;0.57;;;28.70;42.50;;;;;;5027689;28;20366;-68
2023/06/05 12:54:56;;;;;;;0.73;0.60;;;28.80;42.40;;;;;;5028898;28;20032;-68